sensor_id;sensor_type;location;lat;lon;timestamp;temperature;humidity
30893;DHT22;17595;50.884;4.346;2023-06-01T00:02:14;18.60;99.90
30893;DHT22;17595;50.884;4.346;2023-06-01T00:04:40;18.50;99.90
30893;DHT22;17595;50.884;4.346;2023-06-01T00:07:08;18.50;99.90
30893;DHT22;17595;50.884;4.346;2023-06-01T00:09:33;18.50;99.90
30893;DHT22;17595;50.884;4.346;2023-06-01T00:11:59;18.40;99.90
30893;DHT22;17595;50.884;4.346;2023-06-01T00:14:25;18.40;99.90
30893;DHT22;17595;50.884;4.346;2023-06-01T00:16:50;18.40;99.90
30893;DHT22;17595;50.884;4.346;2023-06-01T00:19:17;18.50;99.90
30893;DHT22;17595;50.884;4.346;2023-06-01T00:21:43;18.50;99.90
30893;DHT22;17595;50.884;4.346;2023-06-01T00:24:08;18.50;99.90
30893;DHT22;17595;50.884;4.346;2023-06-01T00:26:34;18.40;99.90
30893;DHT22;17595;50.884;4.346;2023-06-01T00:29:00;18.40;99.90
30893;DHT22;17595;50.884;4.346;2023-06-01T00:31:26;18.20;99.90
30893;DHT22;17595;50.884;4.346;2023-06-01T00:33:52;18.10;99.90
30893;DHT22;17595;50.884;4.346;2023-06-01T00:36:18;18.10;99.90
30893;DHT22;17595;50.884;4.346;2023-06-01T00:38:44;18.20;99.90
30893;DHT22;17595;50.884;4.346;2023-06-01T00:41:10;18.30;99.90
30893;DHT22;17595;50.884;4.346;2023-06-01T00:43:35;18.30;99.90
30893;DHT22;17595;50.884;4.346;2023-06-01T00:46:01;18.10;99.90
30893;DHT22;17595;50.884;4.346;2023-06-01T00:48:27;18.00;99.90
30893;DHT22;17595;50.884;4.346;2023-06-01T00:50:53;17.80;99.90
30893;DHT22;17595;50.884;4.346;2023-06-01T00:53:20;17.90;99.90
30893;DHT22;17595;50.884;4.346;2023-06-01T00:55:49;17.90;99.90
30893;DHT22;17595;50.884;4.346;2023-06-01T00:58:15;18.00;99.90
30893;DHT22;17595;50.884;4.346;2023-06-01T01:00:41;17.90;99.90
30893;DHT22;17595;50.884;4.346;2023-06-01T01:03:07;17.90;99.90
30893;DHT22;17595;50.884;4.346;2023-06-01T01:05:35;17.90;99.90
30893;DHT22;17595;50.884;4.346;2023-06-01T01:08:36;17.90;99.90
30893;DHT22;17595;50.884;4.346;2023-06-01T01:11:18;17.80;99.90
30893;DHT22;17595;50.884;4.346;2023-06-01T01:13:58;17.80;99.90
30893;DHT22;17595;50.884;4.346;2023-06-01T01:16:34;17.80;99.90
30893;DHT22;17595;50.884;4.346;2023-06-01T01:22:20;17.70;99.90
30893;DHT22;17595;50.884;4.346;2023-06-01T01:30:13;17.60;99.90
30893;DHT22;17595;50.884;4.346;2023-06-01T01:32:40;17.60;99.90
30893;DHT22;17595;50.884;4.346;2023-06-01T01:35:07;17.60;99.90
30893;DHT22;17595;50.884;4.346;2023-06-01T01:37:33;17.70;99.90
30893;DHT22;17595;50.884;4.346;2023-06-01T01:40:00;17.70;99.90
30893;DHT22;17595;50.884;4.346;2023-06-01T01:42:27;17.60;99.90
30893;DHT22;17595;50.884;4.346;2023-06-01T01:44:53;17.50;99.90
30893;DHT22;17595;50.884;4.346;2023-06-01T01:47:31;17.40;99.90
30893;DHT22;17595;50.884;4.346;2023-06-01T01:50:05;17.40;99.90
30893;DHT22;17595;50.884;4.346;2023-06-01T01:52:39;17.30;99.90
30893;DHT22;17595;50.884;4.346;2023-06-01T01:55:08;17.40;99.90
30893;DHT22;17595;50.884;4.346;2023-06-01T01:57:35;17.50;99.90
30893;DHT22;17595;50.884;4.346;2023-06-01T02:00:02;17.40;99.90
30893;DHT22;17595;50.884;4.346;2023-06-01T02:02:29;17.40;99.90
30893;DHT22;17595;50.884;4.346;2023-06-01T02:04:55;17.40;99.90
30893;DHT22;17595;50.884;4.346;2023-06-01T02:07:21;17.40;99.90
30893;DHT22;17595;50.884;4.346;2023-06-01T02:09:47;17.30;99.90
30893;DHT22;17595;50.884;4.346;2023-06-01T02:12:13;17.20;99.90
30893;DHT22;17595;50.884;4.346;2023-06-01T02:14:38;17.30;99.90
30893;DHT22;17595;50.884;4.346;2023-06-01T02:17:05;17.30;99.90
30893;DHT22;17595;50.884;4.346;2023-06-01T02:19:31;17.20;99.90
30893;DHT22;17595;50.884;4.346;2023-06-01T02:21:57;17.10;99.90
30893;DHT22;17595;50.884;4.346;2023-06-01T02:24:23;17.20;99.90
30893;DHT22;17595;50.884;4.346;2023-06-01T02:26:49;17.20;99.90
30893;DHT22;17595;50.884;4.346;2023-06-01T02:29:18;17.10;99.90
30893;DHT22;17595;50.884;4.346;2023-06-01T02:31:45;17.10;99.90
30893;DHT22;17595;50.884;4.346;2023-06-01T02:34:11;17.10;99.90
30893;DHT22;17595;50.884;4.346;2023-06-01T02:36:36;16.90;99.90
30893;DHT22;17595;50.884;4.346;2023-06-01T02:39:03;16.90;99.90
30893;DHT22;17595;50.884;4.346;2023-06-01T02:41:28;16.90;99.90
30893;DHT22;17595;50.884;4.346;2023-06-01T02:43:54;16.90;99.90
30893;DHT22;17595;50.884;4.346;2023-06-01T02:46:20;16.90;99.90
30893;DHT22;17595;50.884;4.346;2023-06-01T02:48:46;16.90;99.90
30893;DHT22;17595;50.884;4.346;2023-06-01T02:51:12;16.80;99.90
30893;DHT22;17595;50.884;4.346;2023-06-01T02:53:41;16.80;99.90
30893;DHT22;17595;50.884;4.346;2023-06-01T02:56:08;16.80;99.90
30893;DHT22;17595;50.884;4.346;2023-06-01T02:58:33;16.70;99.90
30893;DHT22;17595;50.884;4.346;2023-06-01T03:00:59;16.60;99.90
30893;DHT22;17595;50.884;4.346;2023-06-01T03:03:25;16.60;99.90
30893;DHT22;17595;50.884;4.346;2023-06-01T03:05:51;16.50;99.90
30893;DHT22;17595;50.884;4.346;2023-06-01T03:08:17;16.50;99.90
30893;DHT22;17595;50.884;4.346;2023-06-01T03:10:43;16.50;99.90
30893;DHT22;17595;50.884;4.346;2023-06-01T03:13:09;16.50;99.90
30893;DHT22;17595;50.884;4.346;2023-06-01T03:15:34;16.50;99.90
30893;DHT22;17595;50.884;4.346;2023-06-01T03:18:03;16.60;99.90
30893;DHT22;17595;50.884;4.346;2023-06-01T03:20:29;16.60;99.90
30893;DHT22;17595;50.884;4.346;2023-06-01T03:22:55;16.50;99.90
30893;DHT22;17595;50.884;4.346;2023-06-01T03:25:21;16.60;99.90
30893;DHT22;17595;50.884;4.346;2023-06-01T03:27:46;16.50;99.90
30893;DHT22;17595;50.884;4.346;2023-06-01T03:30:12;16.40;99.90
30893;DHT22;17595;50.884;4.346;2023-06-01T03:32:40;16.30;99.90
30893;DHT22;17595;50.884;4.346;2023-06-01T03:35:09;16.30;99.90
30893;DHT22;17595;50.884;4.346;2023-06-01T03:37:36;16.20;99.90
30893;DHT22;17595;50.884;4.346;2023-06-01T03:40:02;16.10;99.90
30893;DHT22;17595;50.884;4.346;2023-06-01T03:42:45;16.00;99.90
30893;DHT22;17595;50.884;4.346;2023-06-01T03:45:12;15.90;99.90
30893;DHT22;17595;50.884;4.346;2023-06-01T03:47:38;16.00;99.90
30893;DHT22;17595;50.884;4.346;2023-06-01T03:50:05;16.00;99.90
30893;DHT22;17595;50.884;4.346;2023-06-01T03:52:32;16.10;99.90
30893;DHT22;17595;50.884;4.346;2023-06-01T03:54:59;16.10;99.90
30893;DHT22;17595;50.884;4.346;2023-06-01T03:57:30;16.10;99.90
30893;DHT22;17595;50.884;4.346;2023-06-01T03:59:56;16.10;99.90
30893;DHT22;17595;50.884;4.346;2023-06-01T04:02:22;16.00;99.90
30893;DHT22;17595;50.884;4.346;2023-06-01T04:04:48;15.90;99.90
30893;DHT22;17595;50.884;4.346;2023-06-01T04:07:14;15.80;99.90
30893;DHT22;17595;50.884;4.346;2023-06-01T04:09:44;15.70;99.90
30893;DHT22;17595;50.884;4.346;2023-06-01T04:12:10;15.80;99.90
30893;DHT22;17595;50.884;4.346;2023-06-01T04:14:38;15.80;99.90
30893;DHT22;17595;50.884;4.346;2023-06-01T04:17:04;15.70;99.90
30893;DHT22;17595;50.884;4.346;2023-06-01T04:19:31;15.70;99.90
30893;DHT22;17595;50.884;4.346;2023-06-01T04:21:58;15.70;99.90
30893;DHT22;17595;50.884;4.346;2023-06-01T04:24:23;15.70;99.90
30893;DHT22;17595;50.884;4.346;2023-06-01T04:26:49;15.90;99.90
30893;DHT22;17595;50.884;4.346;2023-06-01T04:29:16;16.00;99.90
30893;DHT22;17595;50.884;4.346;2023-06-01T04:31:45;16.00;99.90
30893;DHT22;17595;50.884;4.346;2023-06-01T04:34:10;16.10;99.90
30893;DHT22;17595;50.884;4.346;2023-06-01T04:36:36;16.20;99.90
30893;DHT22;17595;50.884;4.346;2023-06-01T04:39:07;16.20;99.90
30893;DHT22;17595;50.884;4.346;2023-06-01T04:41:33;16.30;99.90
30893;DHT22;17595;50.884;4.346;2023-06-01T04:44:03;16.40;99.90
30893;DHT22;17595;50.884;4.346;2023-06-01T04:46:32;16.50;99.90
30893;DHT22;17595;50.884;4.346;2023-06-01T04:48:58;16.40;99.90
30893;DHT22;17595;50.884;4.346;2023-06-01T04:51:25;16.40;99.90
30893;DHT22;17595;50.884;4.346;2023-06-01T04:53:52;16.30;99.90
30893;DHT22;17595;50.884;4.346;2023-06-01T04:56:20;16.30;99.90
30893;DHT22;17595;50.884;4.346;2023-06-01T04:58:50;16.30;99.90
30893;DHT22;17595;50.884;4.346;2023-06-01T05:01:15;16.30;99.90
30893;DHT22;17595;50.884;4.346;2023-06-01T05:03:42;16.40;99.90
30893;DHT22;17595;50.884;4.346;2023-06-01T05:06:12;16.30;99.90
30893;DHT22;17595;50.884;4.346;2023-06-01T05:08:40;16.30;99.90
30893;DHT22;17595;50.884;4.346;2023-06-01T05:11:08;16.30;99.90
30893;DHT22;17595;50.884;4.346;2023-06-01T05:13:35;16.30;99.90
30893;DHT22;17595;50.884;4.346;2023-06-01T05:16:02;16.30;99.90
30893;DHT22;17595;50.884;4.346;2023-06-01T05:18:28;16.20;99.90
30893;DHT22;17595;50.884;4.346;2023-06-01T05:20:53;16.30;99.90
30893;DHT22;17595;50.884;4.346;2023-06-01T05:23:19;16.20;99.90
30893;DHT22;17595;50.884;4.346;2023-06-01T05:25:45;16.20;99.90
30893;DHT22;17595;50.884;4.346;2023-06-01T05:28:10;16.30;99.90
30893;DHT22;17595;50.884;4.346;2023-06-01T05:30:36;16.40;99.90
30893;DHT22;17595;50.884;4.346;2023-06-01T05:33:02;16.50;99.90
30893;DHT22;17595;50.884;4.346;2023-06-01T05:35:29;16.60;99.90
30893;DHT22;17595;50.884;4.346;2023-06-01T05:37:54;16.60;99.90
30893;DHT22;17595;50.884;4.346;2023-06-01T05:40:20;16.80;99.90
30893;DHT22;17595;50.884;4.346;2023-06-01T05:42:46;16.80;99.90
30893;DHT22;17595;50.884;4.346;2023-06-01T05:45:12;17.00;99.90
30893;DHT22;17595;50.884;4.346;2023-06-01T05:47:38;16.70;99.90
30893;DHT22;17595;50.884;4.346;2023-06-01T05:50:04;16.50;99.90
30893;DHT22;17595;50.884;4.346;2023-06-01T05:52:30;16.20;99.90
30893;DHT22;17595;50.884;4.346;2023-06-01T05:54:56;16.10;99.90
30893;DHT22;17595;50.884;4.346;2023-06-01T05:57:21;16.20;99.90
30893;DHT22;17595;50.884;4.346;2023-06-01T05:59:47;16.20;99.90
30893;DHT22;17595;50.884;4.346;2023-06-01T06:02:13;16.40;99.90
30893;DHT22;17595;50.884;4.346;2023-06-01T06:04:40;16.60;99.90
30893;DHT22;17595;50.884;4.346;2023-06-01T06:07:05;16.70;99.90
30893;DHT22;17595;50.884;4.346;2023-06-01T06:09:31;16.70;99.90
30893;DHT22;17595;50.884;4.346;2023-06-01T06:11:57;16.70;99.90
30893;DHT22;17595;50.884;4.346;2023-06-01T06:14:23;16.70;99.90
30893;DHT22;17595;50.884;4.346;2023-06-01T06:16:49;16.60;99.90
30893;DHT22;17595;50.884;4.346;2023-06-01T06:19:14;16.60;99.90
30893;DHT22;17595;50.884;4.346;2023-06-01T06:21:43;16.80;99.90
30893;DHT22;17595;50.884;4.346;2023-06-01T06:24:08;16.80;99.90
30893;DHT22;17595;50.884;4.346;2023-06-01T06:26:34;16.80;99.90
30893;DHT22;17595;50.884;4.346;2023-06-01T06:29:00;16.90;99.90
30893;DHT22;17595;50.884;4.346;2023-06-01T06:31:26;17.10;99.90
30893;DHT22;17595;50.884;4.346;2023-06-01T06:33:52;17.30;99.90
30893;DHT22;17595;50.884;4.346;2023-06-01T06:36:18;17.30;99.90
30893;DHT22;17595;50.884;4.346;2023-06-01T06:38:44;17.40;99.90
30893;DHT22;17595;50.884;4.346;2023-06-01T06:41:10;17.50;99.90
30893;DHT22;17595;50.884;4.346;2023-06-01T06:43:36;17.50;99.90
30893;DHT22;17595;50.884;4.346;2023-06-01T06:46:02;17.70;99.90
30893;DHT22;17595;50.884;4.346;2023-06-01T06:48:28;17.80;99.90
30893;DHT22;17595;50.884;4.346;2023-06-01T06:50:54;17.80;99.90
30893;DHT22;17595;50.884;4.346;2023-06-01T06:53:19;17.80;99.90
30893;DHT22;17595;50.884;4.346;2023-06-01T06:55:45;17.90;99.90
30893;DHT22;17595;50.884;4.346;2023-06-01T06:58:11;17.50;99.90
30893;DHT22;17595;50.884;4.346;2023-06-01T07:00:37;17.40;99.90
30893;DHT22;17595;50.884;4.346;2023-06-01T07:03:02;17.60;99.90
30893;DHT22;17595;50.884;4.346;2023-06-01T07:05:29;17.60;99.90
30893;DHT22;17595;50.884;4.346;2023-06-01T07:07:54;17.40;99.90
30893;DHT22;17595;50.884;4.346;2023-06-01T07:10:20;17.30;99.90
30893;DHT22;17595;50.884;4.346;2023-06-01T07:12:46;17.30;99.90
30893;DHT22;17595;50.884;4.346;2023-06-01T07:15:12;17.40;99.90
30893;DHT22;17595;50.884;4.346;2023-06-01T07:17:38;17.50;99.90
30893;DHT22;17595;50.884;4.346;2023-06-01T07:20:04;17.80;99.90
30893;DHT22;17595;50.884;4.346;2023-06-01T07:22:32;17.30;99.90
30893;DHT22;17595;50.884;4.346;2023-06-01T07:24:58;17.40;99.90
30893;DHT22;17595;50.884;4.346;2023-06-01T07:27:24;17.70;99.90
30893;DHT22;17595;50.884;4.346;2023-06-01T07:29:50;17.90;99.90
30893;DHT22;17595;50.884;4.346;2023-06-01T07:32:21;18.00;99.90
30893;DHT22;17595;50.884;4.346;2023-06-01T07:34:47;17.80;99.90
30893;DHT22;17595;50.884;4.346;2023-06-01T07:37:13;17.70;99.90
30893;DHT22;17595;50.884;4.346;2023-06-01T07:39:38;18.00;99.90
30893;DHT22;17595;50.884;4.346;2023-06-01T07:42:04;18.20;99.90
30893;DHT22;17595;50.884;4.346;2023-06-01T07:44:30;18.00;99.90
30893;DHT22;17595;50.884;4.346;2023-06-01T07:46:57;17.60;99.90
30893;DHT22;17595;50.884;4.346;2023-06-01T07:49:23;17.50;99.90
30893;DHT22;17595;50.884;4.346;2023-06-01T07:51:49;17.30;99.90
30893;DHT22;17595;50.884;4.346;2023-06-01T07:54:16;17.10;99.90
30893;DHT22;17595;50.884;4.346;2023-06-01T07:56:42;17.10;99.90
30893;DHT22;17595;50.884;4.346;2023-06-01T07:59:08;17.20;99.90
30893;DHT22;17595;50.884;4.346;2023-06-01T08:01:34;17.40;99.90
30893;DHT22;17595;50.884;4.346;2023-06-01T08:03:59;17.70;99.90
30893;DHT22;17595;50.884;4.346;2023-06-01T08:06:27;17.80;99.90
30893;DHT22;17595;50.884;4.346;2023-06-01T08:08:54;17.30;99.90
30893;DHT22;17595;50.884;4.346;2023-06-01T08:11:19;17.30;99.90
30893;DHT22;17595;50.884;4.346;2023-06-01T08:13:47;17.30;99.90
30893;DHT22;17595;50.884;4.346;2023-06-01T08:16:13;17.50;99.90
30893;DHT22;17595;50.884;4.346;2023-06-01T08:18:38;17.80;99.90
30893;DHT22;17595;50.884;4.346;2023-06-01T08:21:04;18.00;99.90
30893;DHT22;17595;50.884;4.346;2023-06-01T08:23:30;18.40;99.90
30893;DHT22;17595;50.884;4.346;2023-06-01T08:25:56;18.50;99.90
30893;DHT22;17595;50.884;4.346;2023-06-01T08:28:22;18.50;99.90
30893;DHT22;17595;50.884;4.346;2023-06-01T08:30:47;18.70;99.90
30893;DHT22;17595;50.884;4.346;2023-06-01T08:33:13;18.50;99.90
30893;DHT22;17595;50.884;4.346;2023-06-01T08:35:38;18.50;99.90
30893;DHT22;17595;50.884;4.346;2023-06-01T08:38:04;18.60;99.90
30893;DHT22;17595;50.884;4.346;2023-06-01T08:40:30;18.50;99.90
30893;DHT22;17595;50.884;4.346;2023-06-01T08:43:07;18.60;99.90
30893;DHT22;17595;50.884;4.346;2023-06-01T08:45:36;18.60;99.90
30893;DHT22;17595;50.884;4.346;2023-06-01T08:48:02;18.90;99.90
30893;DHT22;17595;50.884;4.346;2023-06-01T08:50:30;19.10;99.90
30893;DHT22;17595;50.884;4.346;2023-06-01T08:52:56;19.00;99.90
30893;DHT22;17595;50.884;4.346;2023-06-01T08:55:23;18.70;99.90
30893;DHT22;17595;50.884;4.346;2023-06-01T08:57:49;18.50;99.90
30893;DHT22;17595;50.884;4.346;2023-06-01T09:00:15;18.30;99.90
30893;DHT22;17595;50.884;4.346;2023-06-01T09:02:42;18.20;99.90
30893;DHT22;17595;50.884;4.346;2023-06-01T09:05:09;18.10;99.90
30893;DHT22;17595;50.884;4.346;2023-06-01T09:07:35;18.10;99.90
30893;DHT22;17595;50.884;4.346;2023-06-01T09:10:00;17.60;99.90
30893;DHT22;17595;50.884;4.346;2023-06-01T09:12:28;17.70;99.90
30893;DHT22;17595;50.884;4.346;2023-06-01T09:15:14;17.80;99.90
30893;DHT22;17595;50.884;4.346;2023-06-01T09:17:49;17.90;99.90
30893;DHT22;17595;50.884;4.346;2023-06-01T09:20:25;18.10;99.90
30893;DHT22;17595;50.884;4.346;2023-06-01T09:22:52;18.20;99.90
30893;DHT22;17595;50.884;4.346;2023-06-01T09:25:24;17.90;99.90
30893;DHT22;17595;50.884;4.346;2023-06-01T09:27:51;17.80;99.90
30893;DHT22;17595;50.884;4.346;2023-06-01T09:30:19;17.60;99.90
30893;DHT22;17595;50.884;4.346;2023-06-01T09:32:45;17.80;99.90
30893;DHT22;17595;50.884;4.346;2023-06-01T09:35:13;17.80;99.90
30893;DHT22;17595;50.884;4.346;2023-06-01T09:37:54;17.80;99.90
30893;DHT22;17595;50.884;4.346;2023-06-01T09:40:21;18.00;99.90
30893;DHT22;17595;50.884;4.346;2023-06-01T09:42:47;18.10;99.90
30893;DHT22;17595;50.884;4.346;2023-06-01T09:45:20;18.10;99.90
30893;DHT22;17595;50.884;4.346;2023-06-01T09:47:49;18.20;99.90
30893;DHT22;17595;50.884;4.346;2023-06-01T09:50:36;18.10;99.90
30893;DHT22;17595;50.884;4.346;2023-06-01T09:53:03;18.10;99.90
30893;DHT22;17595;50.884;4.346;2023-06-01T09:55:28;18.20;99.90
30893;DHT22;17595;50.884;4.346;2023-06-01T09:58:17;18.30;99.90
30893;DHT22;17595;50.884;4.346;2023-06-01T10:00:45;18.30;99.90
30893;DHT22;17595;50.884;4.346;2023-06-01T10:03:12;18.50;99.90
30893;DHT22;17595;50.884;4.346;2023-06-01T10:05:38;18.20;99.90
30893;DHT22;17595;50.884;4.346;2023-06-01T10:08:05;18.40;99.90
30893;DHT22;17595;50.884;4.346;2023-06-01T10:10:31;18.60;99.90
30893;DHT22;17595;50.884;4.346;2023-06-01T10:12:58;18.80;99.90
30893;DHT22;17595;50.884;4.346;2023-06-01T10:15:24;18.80;99.90
30893;DHT22;17595;50.884;4.346;2023-06-01T10:17:50;18.70;99.90
30893;DHT22;17595;50.884;4.346;2023-06-01T10:20:16;18.70;99.90
30893;DHT22;17595;50.884;4.346;2023-06-01T10:22:42;18.50;99.90
30893;DHT22;17595;50.884;4.346;2023-06-01T10:25:10;18.40;99.90
30893;DHT22;17595;50.884;4.346;2023-06-01T10:27:57;18.40;99.90
30893;DHT22;17595;50.884;4.346;2023-06-01T10:30:23;18.50;99.90
30893;DHT22;17595;50.884;4.346;2023-06-01T10:32:49;18.70;99.90
30893;DHT22;17595;50.884;4.346;2023-06-01T10:40:43;19.30;99.90
30893;DHT22;17595;50.884;4.346;2023-06-01T10:46:41;19.20;99.90
30893;DHT22;17595;50.884;4.346;2023-06-01T10:49:07;18.90;99.90
30893;DHT22;17595;50.884;4.346;2023-06-01T10:51:33;18.80;99.90
30893;DHT22;17595;50.884;4.346;2023-06-01T10:54:29;18.90;99.90
30893;DHT22;17595;50.884;4.346;2023-06-01T10:57:17;18.80;99.90
30893;DHT22;17595;50.884;4.346;2023-06-01T10:59:43;18.80;99.90
30893;DHT22;17595;50.884;4.346;2023-06-01T11:02:09;18.70;99.90
30893;DHT22;17595;50.884;4.346;2023-06-01T11:04:36;18.70;99.90
30893;DHT22;17595;50.884;4.346;2023-06-01T11:07:38;18.70;99.90
30893;DHT22;17595;50.884;4.346;2023-06-01T11:10:05;18.90;99.90
30893;DHT22;17595;50.884;4.346;2023-06-01T11:15:36;19.10;99.90
30893;DHT22;17595;50.884;4.346;2023-06-01T11:21:18;19.10;99.90
30893;DHT22;17595;50.884;4.346;2023-06-01T11:23:46;19.00;99.90
30893;DHT22;17595;50.884;4.346;2023-06-01T11:26:17;19.00;99.90
30893;DHT22;17595;50.884;4.346;2023-06-01T11:28:48;19.00;99.90
30893;DHT22;17595;50.884;4.346;2023-06-01T11:31:15;19.20;99.90
30893;DHT22;17595;50.884;4.346;2023-06-01T11:33:51;19.40;99.90
30893;DHT22;17595;50.884;4.346;2023-06-01T11:36:19;19.50;99.90
30893;DHT22;17595;50.884;4.346;2023-06-01T11:38:46;19.40;99.90
30893;DHT22;17595;50.884;4.346;2023-06-01T11:41:11;19.60;99.90
30893;DHT22;17595;50.884;4.346;2023-06-01T11:43:37;19.90;99.90
30893;DHT22;17595;50.884;4.346;2023-06-01T11:46:05;19.80;99.90
30893;DHT22;17595;50.884;4.346;2023-06-01T11:48:32;20.00;99.90
30893;DHT22;17595;50.884;4.346;2023-06-01T11:51:01;19.80;99.90
30893;DHT22;17595;50.884;4.346;2023-06-01T11:53:28;20.10;99.90
30893;DHT22;17595;50.884;4.346;2023-06-01T11:55:55;20.00;99.90
30893;DHT22;17595;50.884;4.346;2023-06-01T11:58:28;20.10;99.90
30893;DHT22;17595;50.884;4.346;2023-06-01T12:00:55;20.20;99.90
30893;DHT22;17595;50.884;4.346;2023-06-01T12:03:21;20.30;99.90
30893;DHT22;17595;50.884;4.346;2023-06-01T12:05:47;20.20;99.90
30893;DHT22;17595;50.884;4.346;2023-06-01T12:08:24;20.20;99.90
30893;DHT22;17595;50.884;4.346;2023-06-01T12:10:52;20.20;99.90
30893;DHT22;17595;50.884;4.346;2023-06-01T12:13:19;20.20;99.90
30893;DHT22;17595;50.884;4.346;2023-06-01T12:15:45;20.20;99.90
30893;DHT22;17595;50.884;4.346;2023-06-01T12:18:11;20.40;99.90
30893;DHT22;17595;50.884;4.346;2023-06-01T12:20:42;20.40;99.90
30893;DHT22;17595;50.884;4.346;2023-06-01T12:25:53;20.80;99.90
30893;DHT22;17595;50.884;4.346;2023-06-01T12:28:23;20.80;99.90
30893;DHT22;17595;50.884;4.346;2023-06-01T12:31:10;21.00;99.90
30893;DHT22;17595;50.884;4.346;2023-06-01T12:33:38;21.10;99.90
30893;DHT22;17595;50.884;4.346;2023-06-01T12:36:05;21.00;99.90
30893;DHT22;17595;50.884;4.346;2023-06-01T12:38:56;20.90;99.90
30893;DHT22;17595;50.884;4.346;2023-06-01T12:41:22;20.60;99.90
30893;DHT22;17595;50.884;4.346;2023-06-01T12:43:49;20.40;99.90
30893;DHT22;17595;50.884;4.346;2023-06-01T12:46:28;20.50;99.90
30893;DHT22;17595;50.884;4.346;2023-06-01T12:49:11;20.60;99.90
30893;DHT22;17595;50.884;4.346;2023-06-01T12:51:37;21.00;99.90
30893;DHT22;17595;50.884;4.346;2023-06-01T12:54:03;20.90;99.90
30893;DHT22;17595;50.884;4.346;2023-06-01T12:56:29;20.70;99.90
30893;DHT22;17595;50.884;4.346;2023-06-01T12:58:55;20.80;99.90
30893;DHT22;17595;50.884;4.346;2023-06-01T13:01:20;20.90;99.90
30893;DHT22;17595;50.884;4.346;2023-06-01T13:03:46;20.90;99.90
30893;DHT22;17595;50.884;4.346;2023-06-01T13:06:14;20.80;99.90
30893;DHT22;17595;50.884;4.346;2023-06-01T13:08:42;20.90;99.90
30893;DHT22;17595;50.884;4.346;2023-06-01T13:11:07;20.90;99.90
30893;DHT22;17595;50.884;4.346;2023-06-01T13:13:34;21.00;99.90
30893;DHT22;17595;50.884;4.346;2023-06-01T13:16:00;21.00;99.90
30893;DHT22;17595;50.884;4.346;2023-06-01T13:18:27;20.90;99.90
30893;DHT22;17595;50.884;4.346;2023-06-01T13:20:52;21.10;99.90
30893;DHT22;17595;50.884;4.346;2023-06-01T13:23:18;21.20;99.90
30893;DHT22;17595;50.884;4.346;2023-06-01T13:25:44;21.20;99.90
30893;DHT22;17595;50.884;4.346;2023-06-01T13:28:10;21.20;99.90
30893;DHT22;17595;50.884;4.346;2023-06-01T13:30:38;21.20;99.90
30893;DHT22;17595;50.884;4.346;2023-06-01T13:33:05;21.30;99.90
30893;DHT22;17595;50.884;4.346;2023-06-01T13:35:31;21.40;99.90
30893;DHT22;17595;50.884;4.346;2023-06-01T13:37:57;21.60;99.90
30893;DHT22;17595;50.884;4.346;2023-06-01T13:40:25;21.60;99.90
30893;DHT22;17595;50.884;4.346;2023-06-01T13:42:51;21.50;99.90
30893;DHT22;17595;50.884;4.346;2023-06-01T13:45:18;21.70;99.90
30893;DHT22;17595;50.884;4.346;2023-06-01T13:47:44;21.70;99.90
30893;DHT22;17595;50.884;4.346;2023-06-01T13:50:10;21.60;99.90
30893;DHT22;17595;50.884;4.346;2023-06-01T13:52:38;21.60;99.90
30893;DHT22;17595;50.884;4.346;2023-06-01T13:55:04;21.60;99.90
30893;DHT22;17595;50.884;4.346;2023-06-01T13:57:30;21.50;99.90
30893;DHT22;17595;50.884;4.346;2023-06-01T13:59:55;21.40;99.90
30893;DHT22;17595;50.884;4.346;2023-06-01T14:02:21;21.40;99.90
30893;DHT22;17595;50.884;4.346;2023-06-01T14:04:47;21.70;99.90
30893;DHT22;17595;50.884;4.346;2023-06-01T14:07:14;21.50;99.90
30893;DHT22;17595;50.884;4.346;2023-06-01T14:09:40;21.60;99.90
30893;DHT22;17595;50.884;4.346;2023-06-01T14:12:05;21.80;99.90
30893;DHT22;17595;50.884;4.346;2023-06-01T14:14:31;21.40;99.90
30893;DHT22;17595;50.884;4.346;2023-06-01T14:16:57;21.60;99.90
30893;DHT22;17595;50.884;4.346;2023-06-01T14:19:23;21.80;99.90
30893;DHT22;17595;50.884;4.346;2023-06-01T14:21:50;21.70;99.90
30893;DHT22;17595;50.884;4.346;2023-06-01T14:24:16;21.60;99.90
30893;DHT22;17595;50.884;4.346;2023-06-01T14:26:41;21.50;99.90
30893;DHT22;17595;50.884;4.346;2023-06-01T14:29:07;21.40;99.90
30893;DHT22;17595;50.884;4.346;2023-06-01T14:31:33;21.50;99.90
30893;DHT22;17595;50.884;4.346;2023-06-01T14:33:59;21.60;99.90
30893;DHT22;17595;50.884;4.346;2023-06-01T14:36:24;21.60;99.90
30893;DHT22;17595;50.884;4.346;2023-06-01T14:38:50;21.50;99.90
30893;DHT22;17595;50.884;4.346;2023-06-01T14:41:15;21.50;99.90
30893;DHT22;17595;50.884;4.346;2023-06-01T14:43:41;21.50;99.90
30893;DHT22;17595;50.884;4.346;2023-06-01T14:46:07;21.40;99.90
30893;DHT22;17595;50.884;4.346;2023-06-01T14:48:33;21.60;99.90
30893;DHT22;17595;50.884;4.346;2023-06-01T14:50:58;21.80;99.90
30893;DHT22;17595;50.884;4.346;2023-06-01T14:53:24;21.70;99.90
30893;DHT22;17595;50.884;4.346;2023-06-01T14:55:49;21.70;99.90
30893;DHT22;17595;50.884;4.346;2023-06-01T14:58:15;21.50;99.90
30893;DHT22;17595;50.884;4.346;2023-06-01T15:00:41;21.60;99.90
30893;DHT22;17595;50.884;4.346;2023-06-01T15:03:06;21.80;99.90
30893;DHT22;17595;50.884;4.346;2023-06-01T15:05:35;21.90;99.90
30893;DHT22;17595;50.884;4.346;2023-06-01T15:08:01;22.10;99.90
30893;DHT22;17595;50.884;4.346;2023-06-01T15:10:26;22.00;99.90
30893;DHT22;17595;50.884;4.346;2023-06-01T15:12:52;21.80;99.90
30893;DHT22;17595;50.884;4.346;2023-06-01T15:15:18;21.90;99.90
30893;DHT22;17595;50.884;4.346;2023-06-01T15:17:44;22.20;99.90
30893;DHT22;17595;50.884;4.346;2023-06-01T15:20:10;22.30;99.90
30893;DHT22;17595;50.884;4.346;2023-06-01T15:22:36;22.20;99.90
30893;DHT22;17595;50.884;4.346;2023-06-01T15:25:02;22.10;99.90
30893;DHT22;17595;50.884;4.346;2023-06-01T15:27:28;21.90;99.90
30893;DHT22;17595;50.884;4.346;2023-06-01T15:29:54;22.00;99.90
30893;DHT22;17595;50.884;4.346;2023-06-01T15:32:20;21.80;99.90
30893;DHT22;17595;50.884;4.346;2023-06-01T15:34:46;21.80;99.90
30893;DHT22;17595;50.884;4.346;2023-06-01T15:37:12;21.70;99.90
30893;DHT22;17595;50.884;4.346;2023-06-01T15:39:39;21.80;99.90
30893;DHT22;17595;50.884;4.346;2023-06-01T15:42:08;22.00;99.90
30893;DHT22;17595;50.884;4.346;2023-06-01T15:44:39;22.00;99.90
30893;DHT22;17595;50.884;4.346;2023-06-01T15:47:08;22.00;99.90
30893;DHT22;17595;50.884;4.346;2023-06-01T15:49:34;22.20;99.90
30893;DHT22;17595;50.884;4.346;2023-06-01T15:51:59;22.30;99.90
30893;DHT22;17595;50.884;4.346;2023-06-01T15:54:26;22.30;99.90
30893;DHT22;17595;50.884;4.346;2023-06-01T15:56:52;22.40;99.90
30893;DHT22;17595;50.884;4.346;2023-06-01T15:59:17;22.30;99.90